createdAt,value
2024-02-12T00:07:51.291Z,7.9
2024-02-12T00:17:50.576Z,7.8
2024-02-12T00:27:49.645Z,8
2024-02-12T00:37:48.933Z,7.9
2024-02-12T00:47:48.106Z,7.9
2024-02-12T00:57:47.170Z,8.1
2024-02-12T01:07:46.389Z,8.4
2024-02-12T01:17:50.423Z,8.5
2024-02-12T01:27:44.909Z,8.4
2024-02-12T01:37:43.922Z,8.2
2024-02-12T01:47:43.236Z,8.5
2024-02-12T01:57:42.292Z,8.1
2024-02-12T02:07:41.507Z,7.8
2024-02-12T02:17:40.733Z,7.7
2024-02-12T02:27:39.887Z,7.8
2024-02-12T02:37:39.033Z,7.6
2024-02-12T02:47:38.571Z,7.6
2024-02-12T02:57:37.405Z,7.6
2024-02-12T03:08:05.242Z,7.4
2024-02-12T03:18:04.453Z,7.4
2024-02-12T03:28:03.568Z,7.3
2024-02-12T03:38:02.748Z,7.4
2024-02-12T03:48:02.195Z,7.4
2024-02-12T03:58:01.105Z,7.3
2024-02-12T04:08:00.417Z,7.1
2024-02-12T04:17:59.631Z,7.2
2024-02-12T04:27:58.913Z,7.1
2024-02-12T04:37:58.162Z,7.3
2024-02-12T04:47:57.555Z,7.4
2024-02-12T04:57:58.101Z,7.6
2024-02-12T05:07:57.321Z,7.7
2024-02-12T05:17:56.639Z,7.6
2024-02-12T05:27:55.688Z,7.7
2024-02-12T05:37:54.877Z,7.8
2024-02-12T05:47:54.084Z,7.8
2024-02-12T05:57:53.239Z,7.7
2024-02-12T06:07:52.446Z,7.8
2024-02-12T06:17:51.627Z,7.7
2024-02-12T06:27:50.803Z,8
2024-02-12T06:37:49.953Z,8.1
2024-02-12T06:47:49.216Z,8.1
2024-02-12T06:57:48.322Z,8.2
2024-02-12T07:07:47.539Z,8.4
2024-02-12T07:17:46.882Z,8.1
2024-02-12T07:27:45.910Z,8.1
2024-02-12T07:37:45.062Z,7.9
2024-02-12T07:47:44.316Z,8.6
2024-02-12T07:57:43.444Z,8.7
2024-02-12T08:07:51.724Z,8.4
2024-02-12T08:17:42.593Z,8.4
2024-02-12T08:27:41.015Z,8.6
2024-02-12T08:37:40.185Z,8.8
2024-02-12T08:47:39.463Z,9.5
2024-02-12T08:57:38.550Z,9.9
2024-02-12T09:08:04.350Z,10.7
2024-02-12T09:18:03.690Z,12.8
2024-02-12T09:28:02.701Z,18.6
2024-02-12T09:38:01.864Z,27.5
2024-02-12T09:48:01.141Z,33.8
2024-02-12T09:58:00.252Z,36.4
2024-02-12T10:07:59.475Z,34.4
2024-02-12T10:17:58.751Z,37.5
2024-02-12T10:27:57.993Z,37.3
2024-02-12T10:37:57.279Z,38.6
2024-02-12T10:57:55.796Z,39.6
2024-02-12T11:07:54.956Z,39.6
2024-02-12T11:17:54.304Z,37.9
2024-02-12T11:27:53.338Z,38.1
2024-02-12T11:37:52.543Z,36.9
2024-02-12T11:47:51.796Z,23.1
2024-02-12T11:57:50.906Z,20.9
2024-02-12T12:07:50.059Z,18.9
2024-02-12T12:17:49.298Z,18.6
2024-02-12T12:27:48.428Z,17.3
2024-02-12T12:37:47.724Z,17.3
2024-02-12T12:47:47.014Z,15.8
2024-02-12T12:57:46.000Z,15.4
2024-02-12T13:08:14.949Z,16.2
2024-02-12T13:17:44.442Z,14.8
2024-02-12T13:27:43.534Z,14.6
2024-02-12T13:37:42.744Z,15.1
2024-02-12T13:47:41.943Z,15.1
2024-02-12T13:57:41.105Z,14.3
2024-02-12T14:07:40.279Z,14.3
2024-02-12T14:17:39.538Z,13.8
2024-02-12T14:27:38.640Z,14
2024-02-12T14:37:37.847Z,14.1
2024-02-12T14:47:37.100Z,13.6
2024-02-12T14:57:36.226Z,13.3
2024-02-12T15:08:03.491Z,13.1
2024-02-12T15:18:02.888Z,12.4
2024-02-12T15:28:01.814Z,12.1
2024-02-12T15:38:01.146Z,11.9
2024-02-12T15:48:00.310Z,11.8
2024-02-12T15:57:59.398Z,11.7
2024-02-12T16:07:58.587Z,11.7
2024-02-12T16:17:57.952Z,11.4
2024-02-12T16:27:57.112Z,11.4
2024-02-12T16:37:56.401Z,11.3
2024-02-12T16:47:55.765Z,11.2
2024-02-12T16:57:54.928Z,10.8
2024-02-12T17:07:58.377Z,10.9
2024-02-12T17:17:53.376Z,11.2
2024-02-12T17:27:52.464Z,11
2024-02-12T17:37:51.692Z,11
2024-02-12T17:47:50.866Z,11.1
2024-02-12T17:57:50.141Z,10.6
2024-02-12T18:07:50.124Z,10.6
2024-02-12T18:17:49.681Z,10.6
2024-02-12T18:27:48.494Z,10.4
2024-02-12T18:37:49.569Z,10.3
2024-02-12T18:47:46.890Z,10.6
2024-02-12T18:57:46.135Z,10.4
2024-02-12T19:07:45.239Z,10.2
2024-02-12T19:17:44.745Z,10.2
2024-02-12T19:27:44.014Z,10.1
2024-02-12T19:37:42.831Z,10.1
2024-02-12T19:47:42.087Z,10.1
2024-02-12T19:57:41.694Z,10
2024-02-12T20:07:40.364Z,9.7
2024-02-12T20:17:39.623Z,9.4
2024-02-12T20:27:38.744Z,9.3
2024-02-12T20:37:37.965Z,9.1
2024-02-12T20:47:37.173Z,9.1
2024-02-12T20:57:36.338Z,9.2
2024-02-12T21:08:04.639Z,9.1
2024-02-12T21:18:03.819Z,9.2
2024-02-12T21:28:02.946Z,9.6
2024-02-12T21:38:02.150Z,9.5
2024-02-12T21:48:01.404Z,9.6
2024-02-12T21:58:00.523Z,9.3
2024-02-12T22:08:01.140Z,9.3
2024-02-12T22:18:00.390Z,9.3
2024-02-12T22:27:59.494Z,9.3
2024-02-12T22:37:58.727Z,9.1
2024-02-12T22:47:58.167Z,9.1
2024-02-12T22:57:57.110Z,8.8
2024-02-12T23:07:56.265Z,8.8
2024-02-12T23:17:55.543Z,8.9
2024-02-12T23:27:54.645Z,8.8
2024-02-12T23:37:53.859Z,9
2024-02-12T23:47:53.098Z,9.3
2024-02-12T23:57:52.223Z,9.4
